Time;durP1;ratioP1;P1;durP2;ratioP2;P2;SDS_P1;SDS_P2;PMS_P1;PMS_P2;Temp;Humidity;BMP_temperature;BMP_pressure;BME280_temperature;BME280_humidity;BME280_pressure;Samples;Min_cycle;Max_cycle;Signal;HPM_P1;HPM_P2
2022/10/26 00:01:12;;;;;;;13.80;5.68;;;;;;;13.91;100.00;98039.56;5093914;28;20035;-83
2022/10/26 00:03:39;;;;;;;16.48;6.68;;;;;;;13.85;100.00;98030.75;5094493;28;20020;-84
2022/10/26 00:06:13;;;;;;;11.05;6.22;;;;;;;13.88;100.00;98037.41;5093636;28;20501;-85
2022/10/26 00:08:43;;;;;;;21.98;7.82;;;;;;;13.89;100.00;98024.00;5094755;28;20118;-83
2022/10/26 00:11:10;;;;;;;14.13;6.85;;;;;;;13.90;100.00;98030.84;5093763;28;20020;-84
2022/10/26 00:13:36;;;;;;;18.58;7.57;;;;;;;13.91;100.00;98016.63;5094691;28;20351;-84
2022/10/26 00:16:14;;;;;;;17.80;7.88;;;;;;;13.97;100.00;98020.94;5094762;28;20056;-84
2022/10/26 00:18:43;;;;;;;16.08;7.93;;;;;;;13.91;100.00;98010.53;5093093;28;20473;-84
2022/10/26 00:21:10;;;;;;;19.05;7.53;;;;;;;13.87;100.00;98015.53;5093762;28;20033;-84
2022/10/26 00:23:36;;;;;;;14.93;7.22;;;;;;;13.88;100.00;98005.75;5094820;28;20024;-84
2022/10/26 00:26:05;;;;;;;17.85;7.15;;;;;;;13.87;100.00;98004.16;5093229;28;20043;-83
2022/10/26 00:28:31;;;;;;;16.98;6.60;;;;;;;13.88;100.00;98013.66;5094570;28;20054;-83
2022/10/26 00:31:02;;;;;;;19.50;7.50;;;;;;;13.92;100.00;97999.75;5094470;28;20034;-83
2022/10/26 00:33:29;;;;;;;15.57;6.88;;;;;;;13.95;100.00;97996.63;5093234;28;20028;-83
2022/10/26 00:35:55;;;;;;;15.35;7.28;;;;;;;13.93;100.00;97990.00;5093967;28;20050;-84
2022/10/26 00:38:21;;;;;;;19.63;8.07;;;;;;;13.84;100.00;97984.31;5094307;28;20489;-83
2022/10/26 00:40:47;;;;;;;17.90;7.72;;;;;;;13.81;100.00;97980.34;5093779;28;20066;-83
2022/10/26 00:43:16;;;;;;;20.05;8.43;;;;;;;13.89;100.00;97973.06;5093729;28;20044;-83
2022/10/26 00:45:43;;;;;;;15.45;8.10;;;;;;;13.92;100.00;97972.56;5094193;28;20500;-83
2022/10/26 00:48:22;;;;;;;19.88;9.20;;;;;;;13.90;100.00;97969.38;5092714;28;20107;-84
2022/10/26 00:50:48;;;;;;;19.75;9.13;;;;;;;13.76;100.00;97955.72;5091099;28;20040;-83
2022/10/26 00:53:14;;;;;;;18.73;8.45;;;;;;;13.84;100.00;97961.41;5091938;28;20533;-84
2022/10/26 00:55:45;;;;;;;23.25;9.18;;;;;;;13.90;100.00;97946.44;5075387;28;20119;-83
2022/10/26 00:58:11;;;;;;;20.02;9.80;;;;;;;13.88;100.00;97948.53;5092268;28;20510;-84
2022/10/26 01:00:38;;;;;;;18.30;8.60;;;;;;;13.80;100.00;97952.38;5093615;28;20039;-84
2022/10/26 01:03:06;;;;;;;23.98;9.50;;;;;;;13.84;100.00;97948.22;5092557;28;20427;-83
2022/10/26 01:05:35;;;;;;;23.60;9.98;;;;;;;13.84;100.00;97944.75;5108648;28;20035;-83
2022/10/26 01:08:02;;;;;;;21.77;9.55;;;;;;;13.84;100.00;97942.94;5091971;28;20662;-83
2022/10/26 01:10:30;;;;;;;21.35;10.40;;;;;;;13.87;100.00;97940.84;5093988;28;20024;-83
2022/10/26 01:12:58;;;;;;;24.52;9.77;;;;;;;13.92;100.00;97940.91;5091706;28;20032;-84
2022/10/26 01:15:43;;;;;;;21.35;9.88;;;;;;;13.89;100.00;97931.66;5093474;28;20032;-83
2022/10/26 01:18:26;;;;;;;20.58;9.55;;;;;;;13.92;100.00;97933.00;5091825;28;20043;-83
2022/10/26 01:21:01;;;;;;;22.35;9.85;;;;;;;13.83;100.00;97924.69;5092864;28;20031;-84
2022/10/26 01:23:39;;;;;;;20.65;11.35;;;;;;;13.88;100.00;97931.91;5093286;28;20509;-83
2022/10/26 01:26:30;;;;;;;25.60;11.02;;;;;;;13.86;100.00;97929.53;5093200;28;20024;-83
2022/10/26 01:29:05;;;;;;;26.60;10.63;;;;;;;13.98;100.00;97943.38;5107741;28;20075;-83
2022/10/26 01:31:49;;;;;;;20.05;9.35;;;;;;;13.89;100.00;97918.47;5092332;28;20110;-82
2022/10/26 01:34:32;;;;;;;26.27;9.80;;;;;;;13.90;100.00;97919.25;5091028;28;20063;-84
2022/10/26 01:37:07;;;;;;;21.90;9.88;;;;;;;13.88;100.00;97911.59;5091529;28;20118;-83
2022/10/26 01:39:43;;;;;;;23.38;10.25;;;;;;;13.90;100.00;97913.97;5093248;28;20024;-83
2022/10/26 01:42:11;;;;;;;21.92;9.75;;;;;;;13.95;100.00;97906.13;5091706;28;20115;-83
2022/10/26 01:44:42;;;;;;;24.58;10.65;;;;;;;13.83;100.00;97899.13;5092989;28;20107;-84
2022/10/26 01:47:11;;;;;;;23.05;10.98;;;;;;;13.96;100.00;97907.75;5091635;28;20024;-83
2022/10/26 01:49:42;;;;;;;19.52;9.77;;;;;;;13.79;100.00;97900.69;5091625;28;20111;-84
2022/10/26 01:52:09;;;;;;;25.10;11.57;;;;;;;13.79;100.00;97884.84;5090993;28;20397;-84
2022/10/26 01:54:35;;;;;;;21.92;10.30;;;;;;;13.92;100.00;97891.59;5092784;28;20032;-84
2022/10/26 01:57:06;;;;;;;25.90;10.27;;;;;;;14.02;100.00;97895.41;5089765;28;20081;-84
2022/10/26 01:59:59;;;;;;;22.38;9.18;;;;;;;13.88;100.00;97887.06;5091718;28;20118;-83
2022/10/26 02:03:03;;;;;;;24.38;10.05;;;;;;;14.03;100.00;97892.53;5092968;28;20501;-84
2022/10/26 02:05:32;;;;;;;20.90;9.70;;;;;;;13.97;100.00;97889.03;5070491;28;20042;-84
2022/10/26 02:08:09;;;;;;;22.80;9.75;;;;;;;14.01;100.00;97889.34;5091577;28;20438;-84
2022/10/26 02:10:51;;;;;;;27.52;12.02;;;;;;;13.80;100.00;97873.25;5092217;28;20024;-85
2022/10/26 02:13:32;;;;;;;25.05;10.35;;;;;;;14.03;100.00;97870.59;5092652;28;20440;-84
2022/10/26 02:16:29;;;;;;;24.42;11.98;;;;;;;14.04;100.00;97870.38;5093337;28;20024;-85
2022/10/26 02:19:17;;;;;;;23.95;12.27;;;;;;;14.05;100.00;97864.06;5092944;28;20101;-85
2022/10/26 02:21:48;;;;;;;31.80;11.85;;;;;;;14.00;100.00;97858.72;5092074;28;20055;-85
2022/10/26 02:24:16;;;;;;;22.45;12.68;;;;;;;14.12;100.00;97862.00;5092945;28;20028;-84
2022/10/26 02:26:46;;;;;;;24.08;10.82;;;;;;;14.23;100.00;97870.84;5092946;28;20109;-83
2022/10/26 02:29:16;;;;;;;19.60;10.63;;;;;;;14.10;100.00;97856.19;5089886;28;20115;-84
2022/10/26 02:31:45;;;;;;;27.33;10.57;;;;;;;14.06;100.00;97857.72;5091007;28;20442;-85
2022/10/26 02:34:13;;;;;;;25.65;11.02;;;;;;;13.96;100.00;97850.50;5091199;28;20050;-84
2022/10/26 02:36:43;;;;;;;27.30;10.30;;;;;;;14.16;100.00;97840.44;5090293;28;20032;-84
2022/10/26 02:39:11;;;;;;;23.55;10.48;;;;;;;14.18;100.00;97843.63;5092184;28;20024;-84
2022/10/26 02:41:39;;;;;;;23.73;10.20;;;;;;;14.20;100.00;97836.25;5073642;28;20024;-84
2022/10/26 02:44:31;;;;;;;22.42;10.35;;;;;;;14.28;100.00;97841.06;5090703;28;20474;-84
2022/10/26 02:46:58;;;;;;;22.35;11.07;;;;;;;14.00;100.00;97838.41;5090722;28;20088;-84
2022/10/26 02:49:24;;;;;;;23.42;11.10;;;;;;;14.19;100.00;97835.44;5091579;28;20050;-84
2022/10/26 02:52:14;;;;;;;24.98;10.63;;;;;;;14.26;100.00;97843.16;5090385;28;20468;-84
2022/10/26 02:55:06;;;;;;;21.70;9.82;;;;;;;14.14;100.00;97830.13;5091834;28;20482;-84
2022/10/26 02:57:40;;;;;;;23.45;10.63;;;;;;;14.23;100.00;97827.84;5091945;28;20027;-85
2022/10/26 03:00:12;;;;;;;22.90;9.77;;;;;;;14.11;100.00;97822.69;5091024;28;20027;-84
2022/10/26 03:02:38;;;;;;;21.23;9.48;;;;;;;14.24;100.00;97832.84;5091648;28;20118;-84
2022/10/26 03:05:13;;;;;;;33.60;11.00;;;;;;;14.24;100.00;97824.94;5090056;28;20024;-84
2022/10/26 03:07:38;;;;;;;20.25;10.38;;;;;;;14.27;100.00;97818.38;5087982;28;20115;-84
2022/10/26 03:10:05;;;;;;;22.13;10.45;;;;;;;14.29;100.00;97811.00;5091588;28;20103;-84
2022/10/26 03:12:30;;;;;;;27.20;10.65;;;;;;;14.33;100.00;97814.72;5090720;28;20028;-84
2022/10/26 03:14:56;;;;;;;24.10;10.27;;;;;;;14.32;100.00;97815.78;5091560;28;20032;-84
2022/10/26 03:17:22;;;;;;;24.55;10.30;;;;;;;14.40;100.00;97806.59;5107410;28;20070;-84
2022/10/26 03:19:47;;;;;;;21.55;11.32;;;;;;;14.35;100.00;97811.84;5089940;28;20024;-83
2022/10/26 03:22:13;;;;;;;25.42;10.50;;;;;;;14.34;100.00;97807.63;5091326;28;20401;-84
2022/10/26 03:24:41;;;;;;;29.20;10.65;;;;;;;14.34;100.00;97808.41;5090911;28;20078;-84
2022/10/26 03:27:06;;;;;;;21.52;10.65;;;;;;;14.41;100.00;97811.66;5090009;28;20099;-83
2022/10/26 03:29:32;;;;;;;27.67;10.55;;;;;;;14.32;100.00;97805.22;5089777;28;20028;-84
2022/10/26 03:31:57;;;;;;;30.90;13.23;;;;;;;14.39;100.00;97813.75;5089967;28;20130;-84
2022/10/26 03:34:23;;;;;;;23.13;11.10;;;;;;;14.45;100.00;97808.50;5090643;28;20028;-83
2022/10/26 03:36:48;;;;;;;25.77;11.95;;;;;;;14.33;100.00;97804.16;5091263;28;20031;-83
2022/10/26 03:39:14;;;;;;;21.50;11.40;;;;;;;14.42;100.00;97804.50;5091155;28;20440;-84
2022/10/26 03:41:41;;;;;;;24.38;12.10;;;;;;;14.40;100.00;97806.59;5090043;28;20032;-84
2022/10/26 03:44:06;;;;;;;24.10;11.80;;;;;;;14.49;100.00;97801.69;5089733;28;20107;-85
2022/10/26 03:46:32;;;;;;;27.33;11.15;;;;;;;14.41;100.00;97798.44;5091243;28;20035;-85
2022/10/26 03:48:58;;;;;;;29.92;11.55;;;;;;;14.42;100.00;97809.78;5090706;28;20051;-84
2022/10/26 03:51:23;;;;;;;24.65;10.30;;;;;;;14.50;100.00;97798.00;5090830;28;20094;-85
2022/10/26 03:53:49;;;;;;;20.20;11.27;;;;;;;14.48;100.00;97798.25;5072686;28;20114;-84
2022/10/26 03:56:14;;;;;;;27.85;12.93;;;;;;;14.41;100.00;97803.72;5090704;28;20032;-83
2022/10/26 03:58:43;;;;;;;32.35;12.77;;;;;;;14.37;100.00;97800.00;5091020;28;20047;-84
2022/10/26 04:01:09;;;;;;;23.50;10.23;;;;;;;14.54;100.00;97793.78;5090886;28;20024;-84
2022/10/26 04:03:35;;;;;;;28.15;11.27;;;;;;;14.42;100.00;97792.13;5089311;28;20127;-84
2022/10/26 04:06:01;;;;;;;24.98;11.35;;;;;;;14.54;100.00;97791.97;5089573;28;20082;-84
2022/10/26 04:08:26;;;;;;;24.88;10.90;;;;;;;14.57;100.00;97788.03;5091125;28;20036;-84
2022/10/26 04:10:52;;;;;;;22.33;11.82;;;;;;;14.59;100.00;97778.00;5089392;28;20081;-84
2022/10/26 04:13:17;;;;;;;29.05;11.57;;;;;;;14.56;100.00;97778.53;5105781;28;20028;-84
2022/10/26 04:15:43;;;;;;;31.35;12.32;;;;;;;14.52;100.00;97777.41;5089328;28;20040;-84
2022/10/26 04:18:11;;;;;;;24.80;11.95;;;;;;;14.63;100.00;97784.38;5088797;28;20040;-84
2022/10/26 04:20:41;;;;;;;28.38;11.82;;;;;;;14.68;100.00;97781.78;5093634;28;20073;-83
2022/10/26 04:23:12;;;;;;;22.42;12.20;;;;;;;14.57;100.00;97772.97;5094430;28;20469;-84
2022/10/26 04:25:38;;;;;;;29.45;13.00;;;;;;;14.58;100.00;97765.84;5094586;28;20023;-85
2022/10/26 04:28:05;;;;;;;21.73;12.32;;;;;;;14.62;100.00;97772.22;5094704;28;20518;-85
2022/10/26 04:30:33;;;;;;;26.88;12.65;;;;;;;14.64;100.00;97764.84;5094796;28;20024;-84
2022/10/26 04:32:59;;;;;;;27.00;12.73;;;;;;;14.65;100.00;97771.72;5094155;28;20123;-85
2022/10/26 04:35:26;;;;;;;24.73;12.85;;;;;;;14.76;100.00;97771.84;5093651;28;20466;-85
2022/10/26 04:37:59;;;;;;;35.17;13.20;;;;;;;14.71;100.00;97770.72;5093393;28;20028;-84
2022/10/26 04:40:28;;;;;;;27.13;12.82;;;;;;;14.65;100.00;97769.06;5093371;28;20381;-84
2022/10/26 04:42:54;;;;;;;30.25;13.30;;;;;;;14.51;100.00;97762.63;5094638;28;20146;-84
2022/10/26 04:45:20;;;;;;;24.90;11.75;;;;;;;14.71;100.00;97765.44;5093443;28;20032;-85
2022/10/26 04:48:09;;;;;;;31.40;13.50;;;;;;;14.81;100.00;97774.50;5093627;28;20111;-84
2022/10/26 04:50:36;;;;;;;29.25;12.55;;;;;;;14.78;100.00;97775.03;5091950;28;20040;-84
2022/10/26 04:53:03;;;;;;;29.92;13.10;;;;;;;14.70;100.00;97790.22;5092536;28;20032;-84
2022/10/26 04:55:28;;;;;;;24.23;12.20;;;;;;;14.82;100.00;97791.94;5094074;28;20059;-85
2022/10/26 04:57:54;;;;;;;25.60;12.15;;;;;;;14.87;100.00;97781.41;5094392;28;20059;-84
2022/10/26 05:00:20;;;;;;;29.52;13.18;;;;;;;14.80;100.00;97784.25;5094216;28;20081;-85
2022/10/26 05:02:45;;;;;;;32.88;12.30;;;;;;;14.85;100.00;97778.22;5094243;28;20051;-84
2022/10/26 05:05:11;;;;;;;20.95;12.18;;;;;;;14.87;100.00;97781.41;5094389;28;20076;-84
2022/10/26 05:07:36;;;;;;;24.60;12.10;;;;;;;14.90;100.00;97780.13;5094284;28;20032;-84
2022/10/26 05:10:02;;;;;;;28.13;12.15;;;;;;;14.75;100.00;97764.97;5094143;28;20122;-83
2022/10/26 05:12:28;;;;;;;26.35;12.10;;;;;;;14.86;100.00;97769.25;5093577;28;20039;-85
2022/10/26 05:14:57;;;;;;;21.42;11.35;;;;;;;14.83;100.00;97772.41;5092313;28;20032;-84
2022/10/26 05:17:24;;;;;;;22.42;11.50;;;;;;;14.83;100.00;97773.19;5092973;28;20028;-84
2022/10/26 05:19:59;;;;;;;23.17;12.40;;;;;;;14.92;100.00;97775.38;5093040;28;20039;-85
2022/10/26 05:22:24;;;;;;;23.55;11.05;;;;;;;14.89;100.00;97776.66;5094275;28;20024;-85
2022/10/26 05:24:50;;;;;;;22.08;12.65;;;;;;;14.88;100.00;97784.84;5095784;28;20050;-85
2022/10/26 05:27:16;;;;;;;21.33;11.90;;;;;;;14.91;100.00;97785.13;5095637;28;20422;-85
2022/10/26 05:29:42;;;;;;;20.55;11.85;;;;;;;14.98;100.00;97790.19;5093946;28;20028;-84
2022/10/26 05:32:08;;;;;;;21.30;11.38;;;;;;;14.89;100.00;97797.81;5093830;28;20032;-84
2022/10/26 05:34:33;;;;;;;24.23;10.75;;;;;;;14.89;100.00;97802.31;5092383;28;20488;-85
2022/10/26 05:36:59;;;;;;;23.25;9.65;;;;;;;15.05;100.00;97800.56;5093677;28;20097;-85
2022/10/26 05:39:24;;;;;;;13.43;10.38;;;;;;;15.02;100.00;97809.00;5092244;28;20107;-85
2022/10/26 05:41:50;;;;;;;14.57;8.55;;;;;;;14.98;100.00;97795.50;5093392;28;20458;-84
2022/10/26 05:44:15;;;;;;;12.85;7.93;;;;;;;14.91;100.00;97787.00;5091696;28;20047;-85
2022/10/26 05:46:41;;;;;;;16.23;8.02;;;;;;;14.87;100.00;97791.97;5093070;28;20039;-85
2022/10/26 05:49:07;;;;;;;15.02;7.40;;;;;;;14.90;100.00;97793.31;5093059;28;20031;-85
2022/10/26 05:51:36;;;;;;;16.20;8.20;;;;;;;14.89;100.00;97802.31;5091486;28;20044;-84
2022/10/26 05:54:02;;;;;;;14.43;7.45;;;;;;;14.86;100.00;97800.94;5096555;28;20059;-83
2022/10/26 05:56:36;;;;;;;16.85;7.85;;;;;;;14.83;100.00;97799.59;5092912;28;20052;-83
2022/10/26 05:59:09;;;;;;;15.77;6.68;;;;;;;14.77;100.00;97792.69;5092502;28;20032;-86
2022/10/26 06:01:46;;;;;;;14.30;6.50;;;;;;;14.80;100.00;97796.69;5094209;28;20123;-86
2022/10/26 06:04:12;;;;;;;14.38;6.32;;;;;;;14.83;100.00;97812.03;5093282;28;20039;-84
2022/10/26 06:06:47;;;;;;;19.52;7.20;;;;;;;14.88;100.00;97804.13;5091563;28;20420;-85
2022/10/26 06:09:13;;;;;;;17.27;6.80;;;;;;;14.67;100.00;97817.16;5091406;28;20030;-84
2022/10/26 06:11:39;;;;;;;16.13;5.90;;;;;;;14.75;100.00;97796.66;5092706;28;20019;-84
2022/10/26 06:14:06;;;;;;;14.90;6.15;;;;;;;14.84;100.00;97827.63;5092528;28;20028;-84
2022/10/26 06:16:37;;;;;;;14.23;5.60;;;;;;;14.77;100.00;97821.75;5092090;28;20051;-85
2022/10/26 06:19:24;;;;;;;13.52;6.15;;;;;;;14.94;100.00;97826.91;5074511;28;20040;-85
2022/10/26 06:22:15;;;;;;;13.10;5.70;;;;;;;14.79;100.00;97822.28;5093564;28;20493;-86
2022/10/26 06:25:04;;;;;;;12.63;5.15;;;;;;;14.73;100.00;97820.66;5092488;28;20028;-86
2022/10/26 06:27:45;;;;;;;14.75;5.38;;;;;;;14.71;100.00;97812.19;5063097;28;20454;-86
2022/10/26 06:30:12;;;;;;;11.57;5.05;;;;;;;14.69;100.00;97827.47;5092690;28;20028;-84
2022/10/26 06:32:39;;;;;;;14.20;4.72;;;;;;;14.70;100.00;97832.50;5089170;28;20035;-85
2022/10/26 06:35:14;;;;;;;14.05;4.80;;;;;;;14.73;100.00;97825.94;5091685;28;20024;-84
2022/10/26 06:37:43;;;;;;;23.88;5.38;;;;;;;14.56;100.00;97823.41;5089228;28;20028;-85
2022/10/26 06:40:14;;;;;;;10.63;4.13;;;;;;;14.51;100.00;97828.63;5107848;28;20028;-83
2022/10/26 06:42:40;;;;;;;10.63;3.75;;;;;;;14.40;100.00;97823.25;5090297;28;20055;-85
2022/10/26 06:45:11;;;;;;;10.15;4.00;;;;;;;14.36;100.00;97824.81;5090313;28;20020;-85
2022/10/26 06:47:46;;;;;;;13.85;5.05;;;;;;;14.46;100.00;97825.94;5073460;28;20500;-83
2022/10/26 06:50:35;;;;;;;11.43;3.90;;;;;;;14.32;100.00;97815.78;5072796;28;20039;-84
2022/10/26 06:53:19;;;;;;;12.75;4.32;;;;;;;14.26;100.00;97816.78;5091765;28;20024;-87
2022/10/26 06:55:48;;;;;;;11.80;4.38;;;;;;;14.13;100.00;97812.69;5091964;28;20064;-88
2022/10/26 06:58:17;;;;;;;11.40;4.45;;;;;;;14.00;100.00;97813.88;5092844;28;20085;-90
2022/10/26 07:00:45;;;;;;;11.68;4.13;;;;;;;14.04;100.00;97824.72;5094571;28;20081;-88
2022/10/26 07:03:11;;;;;;;13.27;4.40;;;;;;;13.93;100.00;97821.97;5094869;28;20063;-87
2022/10/26 07:05:38;;;;;;;19.25;5.55;;;;;;;13.90;100.00;97840.13;5076636;28;20033;-88
2022/10/26 07:08:04;;;;;;;11.52;4.45;;;;;;;13.85;100.00;97848.75;5112869;27;20477;-81
2022/10/26 07:10:31;;;;;;;15.20;4.55;;;;;;;13.94;100.00;97857.84;5090093;28;20044;-87
2022/10/26 07:12:56;;;;;;;13.95;4.38;;;;;;;14.03;100.00;97866.16;5092583;28;20019;-86
2022/10/26 07:15:24;;;;;;;20.30;5.55;;;;;;;14.11;100.00;97859.63;5093248;28;20028;-89
2022/10/26 07:17:50;;;;;;;13.80;4.93;;;;;;;14.26;100.00;97859.81;5090510;28;20040;-83
2022/10/26 07:20:18;;;;;;;19.85;5.00;;;;;;;14.27;100.00;97852.69;5090322;28;20130;-84
2022/10/26 07:22:44;;;;;;;13.05;3.92;;;;;;;14.41;100.00;97861.81;5089436;28;20027;-84
2022/10/26 07:25:11;;;;;;;14.25;4.63;;;;;;;14.33;100.00;97849.03;5089722;28;20073;-82
2022/10/26 07:27:36;;;;;;;14.82;4.10;;;;;;;14.40;100.00;97856.75;5090245;28;20043;-83
2022/10/26 07:30:03;;;;;;;12.95;4.47;;;;;;;14.48;100.00;97866.91;5072448;28;20073;-84
2022/10/26 07:32:29;;;;;;;16.60;4.18;;;;;;;14.51;100.00;97865.59;5106984;28;20031;-86
2022/10/26 07:34:57;;;;;;;14.27;4.07;;;;;;;14.46;100.00;97862.91;5091509;28;20024;-83
2022/10/26 07:37:23;;;;;;;7.00;3.58;;;;;;;14.61;100.00;97862.25;5089712;28;20027;-84
2022/10/26 07:39:49;;;;;;;11.50;4.07;;;;;;;14.67;100.00;97858.63;5089129;28;20370;-85
2022/10/26 07:42:15;;;;;;;13.18;4.30;;;;;;;14.66;100.00;97852.53;5090130;28;20032;-85
2022/10/26 07:44:40;;;;;;;13.50;4.03;;;;;;;14.85;100.00;97853.00;5091317;28;20028;-85
2022/10/26 07:47:06;;;;;;;8.90;3.70;;;;;;;14.94;100.00;97853.34;5096354;28;20119;-88
2022/10/26 07:49:31;;;;;;;10.88;3.92;;;;;;;15.03;100.00;97850.22;5074038;28;20031;-88
2022/10/26 07:51:57;;;;;;;16.73;4.20;;;;;;;15.13;100.00;97834.44;5091338;28;20052;-88
2022/10/26 07:54:23;;;;;;;12.40;4.70;;;;;;;15.07;100.00;97830.97;5093899;28;20139;-87
2022/10/26 07:56:49;;;;;;;14.60;3.60;;;;;;;14.91;100.00;97816.84;5096683;28;20020;-88
2022/10/26 07:59:15;;;;;;;10.50;3.65;;;;;;;14.80;100.00;97804.63;5113917;28;20055;-87
2022/10/26 08:01:41;;;;;;;12.02;3.33;;;;;;;14.90;100.00;97833.72;5096254;28;20586;-87
2022/10/26 08:04:07;;;;;;;9.20;3.95;;;;;;;15.03;100.00;97845.72;5096922;28;20028;-87
2022/10/26 08:06:33;;;;;;;12.65;2.97;;;;;;;15.03;100.00;97842.28;5096203;28;20081;-88
2022/10/26 08:08:58;;;;;;;17.05;3.53;;;;;;;15.16;100.00;97860.38;5095569;28;20032;-88
2022/10/26 08:11:24;;;;;;;12.00;3.22;;;;;;;15.12;100.00;97864.53;5097590;28;20032;-87
2022/10/26 08:13:54;;;;;;;15.60;3.65;;;;;;;15.36;100.00;97874.78;5094233;28;20040;-89
2022/10/26 08:16:20;;;;;;;12.77;3.13;;;;;;;15.37;100.00;97877.16;5095913;28;20028;-87
2022/10/26 08:18:47;;;;;;;15.07;3.38;;;;;;;15.37;100.00;97882.44;5095769;28;20036;-88
2022/10/26 08:21:13;;;;;;;23.08;3.70;;;;;;;15.40;100.00;97897.00;5096310;28;20028;-88
2022/10/26 08:23:43;;;;;;;15.10;4.35;;;;;;;15.35;100.00;97907.56;5112986;28;20039;-88
2022/10/26 08:26:10;;;;;;;14.10;2.92;;;;;;;15.04;100.00;97896.75;5097274;28;20062;-87
2022/10/26 08:28:37;;;;;;;18.52;4.15;;;;;;;15.24;100.00;97910.13;5097881;28;20031;-86
2022/10/26 08:31:04;;;;;;;11.70;3.10;;;;;;;15.34;100.00;97893.53;5097166;28;20080;-87
2022/10/26 08:33:32;;;;;;;18.38;3.83;;;;;;;15.30;100.00;97894.28;5097108;28;20107;-87
2022/10/26 08:35:59;;;;;;;14.25;2.92;;;;;;;15.38;100.00;97914.97;5096156;28;20024;-88
2022/10/26 08:38:25;;;;;;;11.32;3.60;;;;;;;15.27;100.00;97901.66;5096266;28;20162;-86
2022/10/26 08:40:51;;;;;;;13.57;3.67;;;;;;;15.23;100.00;97916.44;5095725;28;20381;-87
2022/10/26 08:43:28;;;;;;;20.17;3.47;;;;;;;15.41;100.00;97914.47;5094786;28;20027;-87
2022/10/26 08:46:03;;;;;;;12.80;3.75;;;;;;;15.42;100.00;97924.78;5096223;28;20101;-87
2022/10/26 08:48:34;;;;;;;16.02;3.75;;;;;;;15.50;100.00;97928.81;5093506;28;20035;-88
2022/10/26 08:51:05;;;;;;;13.98;4.40;;;;;;;15.56;100.00;97927.81;5093007;28;20055;-88
2022/10/26 08:53:51;;;;;;;15.93;3.75;;;;;;;15.47;100.00;97929.31;5094771;28;20477;-87
2022/10/26 08:56:31;;;;;;;14.13;4.30;;;;;;;15.31;100.00;97924.94;5095974;28;20108;-88
2022/10/26 08:59:02;;;;;;;14.25;3.95;;;;;;;15.44;100.00;97924.53;5094953;28;20039;-87
2022/10/26 09:01:35;;;;;;;14.30;3.70;;;;;;;15.59;100.00;97931.78;5096926;28;20076;-87
2022/10/26 09:04:02;;;;;;;15.00;3.88;;;;;;;15.63;100.00;97924.13;5095129;28;20073;-87
2022/10/26 09:07:05;;;;;;;12.13;3.95;;;;;;;15.47;100.00;97929.31;5095378;28;20038;-87
2022/10/26 09:09:34;;;;;;;11.48;4.53;;;;;;;15.61;100.00;97929.66;5093514;28;20031;-87
2022/10/26 09:12:22;;;;;;;13.63;3.53;;;;;;;15.62;100.00;97930.47;5096065;28;20385;-89
2022/10/26 09:15:03;;;;;;;14.30;4.30;;;;;;;15.82;100.00;97941.19;5096022;28;20032;-88
2022/10/26 09:18:00;;;;;;;12.68;3.53;;;;;;;15.83;100.00;97948.06;5095875;28;20020;-88
2022/10/26 09:20:48;;;;;;;16.77;4.25;;;;;;;15.75;100.00;97927.38;5095085;28;20020;-88
2022/10/26 09:23:40;;;;;;;9.35;2.92;;;;;;;16.18;100.00;97934.50;5095725;28;20110;-87
2022/10/26 09:26:13;;;;;;;11.43;3.22;;;;;;;16.11;100.00;97938.19;5077271;28;20035;-89
2022/10/26 09:28:40;;;;;;;14.43;3.55;;;;;;;16.38;100.00;97944.38;5094031;28;20073;-88
2022/10/26 09:31:13;;;;;;;16.40;4.07;;;;;;;16.43;100.00;97955.00;5078082;28;20032;-87
2022/10/26 09:33:39;;;;;;;12.35;3.35;;;;;;;16.74;100.00;97954.28;5094725;28;20058;-87
2022/10/26 09:36:09;;;;;;;10.77;2.67;;;;;;;16.96;100.00;97967.31;5077630;28;20409;-88
2022/10/26 09:38:53;;;;;;;15.52;3.22;;;;;;;17.36;100.00;97971.06;5111190;28;20031;-88
2022/10/26 09:41:24;;;;;;;7.90;2.40;;;;;;;17.21;100.00;97984.34;5094706;28;20047;-87
2022/10/26 09:44:00;;;;;;;9.40;2.30;;;;;;;17.27;100.00;97976.13;5093496;28;20107;-87
2022/10/26 09:46:51;;;;;;;11.25;2.33;;;;;;;17.34;100.00;97983.81;5094672;28;20429;-87
2022/10/26 09:49:22;;;;;;;9.73;2.60;;;;;;;17.24;100.00;97989.91;5095714;28;20024;-87
2022/10/26 09:51:48;;;;;;;9.27;2.45;;;;;;;17.38;100.00;97979.56;5095185;28;20113;-87
2022/10/26 09:54:19;;;;;;;12.93;2.78;;;;;;;17.34;100.00;97991.00;5077025;28;20032;-89
2022/10/26 09:56:50;;;;;;;9.68;2.45;;;;;;;17.40;100.00;97987.25;5095232;28;20031;-87
2022/10/26 09:59:19;;;;;;;10.60;2.72;;;;;;;17.10;100.00;97991.50;5095291;28;20085;-89
2022/10/26 10:01:44;;;;;;;9.63;2.03;;;;;;;17.24;100.00;97997.06;5096483;28;20077;-87
2022/10/26 10:04:15;;;;;;;11.07;2.50;;;;;;;16.97;100.00;97985.59;5093692;28;20031;-89
2022/10/26 10:06:45;;;;;;;8.27;2.30;;;;;;;16.91;100.00;97989.31;5095525;28;20023;-88
2022/10/26 10:09:12;;;;;;;6.32;2.30;;;;;;;17.39;100.00;97990.97;5094145;28;20035;-89
2022/10/26 10:12:03;;;;;;;4.30;2.30;;;;;;;17.13;100.00;97994.41;5094789;28;20063;-88
2022/10/26 10:14:32;;;;;;;12.68;3.03;;;;;;;17.33;100.00;98002.66;5110621;28;20032;-88
2022/10/26 10:17:03;;;;;;;8.60;2.40;;;;;;;17.32;100.00;98006.38;5091672;28;20546;-87
2022/10/26 10:19:31;;;;;;;10.75;2.35;;;;;;;16.77;100.00;97996.94;5094849;28;20028;-89
2022/10/26 10:22:00;;;;;;;9.52;2.35;;;;;;;16.61;100.00;98005.94;5094199;28;20485;-87
2022/10/26 10:24:28;;;;;;;11.60;2.30;;;;;;;16.69;100.00;98011.50;5094055;28;20409;-88
2022/10/26 10:26:55;;;;;;;8.77;2.03;;;;;;;16.80;100.00;98007.03;5093855;28;20508;-87
2022/10/26 10:29:24;;;;;;;9.15;2.35;;;;;;;16.74;100.00;98018.66;5110760;28;20050;-89
2022/10/26 10:31:56;;;;;;;14.57;2.63;;;;;;;16.70;100.00;98007.00;5093032;28;20036;-87
2022/10/26 10:34:22;;;;;;;8.93;2.63;;;;;;;16.67;100.00;98015.47;5093903;28;20024;-88
2022/10/26 10:36:49;;;;;;;8.50;2.25;;;;;;;16.60;100.00;98017.53;5094476;28;20051;-87
2022/10/26 10:39:36;;;;;;;12.68;2.47;;;;;;;16.72;100.00;98023.44;5094779;28;20056;-88
2022/10/26 10:42:12;;;;;;;8.15;2.00;;;;;;;16.88;100.00;98036.75;5094968;28;20032;-87
2022/10/26 10:44:39;;;;;;;7.93;2.22;;;;;;;16.69;100.00;98029.25;5094401;28;20382;-88
2022/10/26 10:47:06;;;;;;;7.57;1.98;;;;;;;17.15;100.00;98036.56;5094110;28;20035;-88
2022/10/26 10:49:32;;;;;;;10.52;2.22;;;;;;;17.27;100.00;98047.72;5094792;28;20034;-89
2022/10/26 10:51:59;;;;;;;6.70;2.00;;;;;;;17.24;100.00;98047.47;5093441;28;20044;-87
2022/10/26 10:54:34;;;;;;;8.48;2.13;;;;;;;17.40;100.00;98050.94;5091922;28;20539;-89
2022/10/26 10:57:43;;;;;;;9.88;2.70;;;;;;;17.50;100.00;98056.25;5093589;28;20048;-88
2022/10/26 11:00:09;;;;;;;11.23;1.95;;;;;;;17.50;100.00;98056.25;5048725;28;20046;-89
2022/10/26 11:03:13;;;;;;;14.48;3.40;;;;;;;17.49;100.00;98054.66;5095063;28;20097;-88
2022/10/26 11:06:04;;;;;;;8.90;2.75;;;;;;;17.45;100.00;98061.53;5094290;28;20051;-89
2022/10/26 11:08:49;;;;;;;9.35;2.33;;;;;;;17.66;100.00;98072.97;5094347;28;20107;-88
2022/10/26 11:11:20;;;;;;;6.72;2.20;;;;;;;17.58;100.00;98073.47;5094656;28;20020;-87
2022/10/26 11:14:07;;;;;;;5.88;2.05;;;;;;;17.66;100.00;98065.00;5093795;28;20020;-88
2022/10/26 11:16:46;;;;;;;4.45;1.92;;;;;;;17.42;100.00;98059.41;5077215;28;20042;-87
2022/10/26 11:19:15;;;;;;;8.10;2.38;;;;;;;17.24;100.00;98066.81;5091404;28;20111;-88
2022/10/26 11:21:44;;;;;;;6.75;2.25;;;;;;;17.26;100.00;98066.56;5110273;28;20095;-89
2022/10/26 11:24:17;;;;;;;7.78;2.38;;;;;;;17.21;100.00;98054.06;5094532;28;20016;-87
2022/10/26 11:27:07;;;;;;;9.48;2.38;;;;;;;17.08;100.00;98076.59;5092823;28;20028;-87
2022/10/26 11:30:05;;;;;;;9.13;2.53;;;;;;;17.17;100.00;98079.53;5091686;28;20497;-88
2022/10/26 11:32:45;;;;;;;11.90;2.45;;;;;;;17.09;100.00;98072.06;5093386;28;20106;-88